Time;durP1;ratioP1;P1;durP2;ratioP2;P2;SDS_P1;SDS_P2;PMS_P1;PMS_P2;Temp;Humidity;BMP_temperature;BMP_pressure;BME280_temperature;BME280_humidity;BME280_pressure;Samples;Min_cycle;Max_cycle;Signal;HPM_P1;HPM_P2
2022/10/14 00:00:44;;;;;;;20.53;19.03;;;14.30;94.30;;;;;;4950831;28;20483;-82
2022/10/14 00:03:12;;;;;;;20.10;18.70;;;14.30;94.40;;;;;;4954943;28;20493;-82
2022/10/14 00:05:42;;;;;;;20.10;18.50;;;14.30;94.20;;;;;;4952763;29;20491;-82
2022/10/14 00:08:09;;;;;;;21.13;19.83;;;14.30;94.10;;;;;;4958786;28;20459;-82
2022/10/14 00:10:39;;;;;;;20.57;19.10;;;14.30;94.20;;;;;;4961518;29;20519;-82
2022/10/14 00:13:06;;;;;;;20.47;19.07;;;14.20;94.30;;;;;;4961362;28;20491;-82
2022/10/14 00:15:38;;;;;;;21.07;19.00;;;14.30;94.10;;;;;;4959778;28;20551;-84
2022/10/14 00:18:05;;;;;;;21.77;20.10;;;14.30;94.20;;;;;;4960447;28;21060;-83
2022/10/14 00:20:34;;;;;;;19.57;18.10;;;14.30;94.30;;;;;;4959831;28;20546;-82
2022/10/14 00:23:01;;;;;;;20.13;18.50;;;14.30;94.20;;;;;;4957555;28;20833;-82
2022/10/14 00:25:28;;;;;;;20.43;18.77;;;14.30;94.10;;;;;;4948502;28;20566;-82
2022/10/14 00:27:55;;;;;;;21.07;19.10;;;14.30;93.90;;;;;;4954685;28;20495;-83
2022/10/14 00:30:24;;;;;;;20.77;19.17;;;14.30;93.80;;;;;;4953413;29;20470;-83
2022/10/14 00:32:51;;;;;;;20.73;18.77;;;14.30;93.60;;;;;;4957878;28;20483;-82
2022/10/14 00:35:17;;;;;;;20.80;19.30;;;14.30;93.90;;;;;;4970893;29;20875;-83
2022/10/14 00:37:46;;;;;;;20.83;19.23;;;14.20;94.30;;;;;;4970621;28;20467;-83
2022/10/14 00:40:13;;;;;;;21.40;20.00;;;14.10;94.60;;;;;;4971587;29;20881;-82
2022/10/14 00:42:40;;;;;;;20.00;18.50;;;14.10;94.90;;;;;;4962729;28;20495;-83
2022/10/14 00:45:13;;;;;;;20.10;18.70;;;14.20;94.70;;;;;;4962551;29;21033;-82
2022/10/14 00:47:40;;;;;;;20.53;18.97;;;14.20;94.80;;;;;;4962420;28;20460;-82
2022/10/14 00:50:08;;;;;;;20.97;19.37;;;14.20;94.70;;;;;;4960073;28;20464;-82
2022/10/14 00:52:35;;;;;;;20.03;18.60;;;14.20;94.40;;;;;;4963968;28;20479;-83
2022/10/14 00:55:07;;;;;;;20.80;19.50;;;14.20;94.10;;;;;;4968164;28;20478;-84
2022/10/14 00:57:35;;;;;;;20.53;18.93;;;14.30;93.60;;;;;;4965705;29;20499;-82
2022/10/14 01:00:07;;;;;;;20.60;18.70;;;14.30;93.60;;;;;;4964830;29;20454;-82
2022/10/14 01:02:34;;;;;;;21.07;19.30;;;14.30;93.70;;;;;;4959678;28;20877;-82
2022/10/14 01:05:02;;;;;;;20.33;18.77;;;14.20;93.90;;;;;;4964187;28;20556;-82
2022/10/14 01:07:40;;;;;;;20.87;19.00;;;14.20;94.00;;;;;;4958577;28;20992;-82
2022/10/14 01:10:14;;;;;;;21.30;19.70;;;14.20;94.00;;;;;;4956519;29;20459;-82
2022/10/14 01:12:54;;;;;;;22.43;20.70;;;14.20;94.00;;;;;;4959113;28;20459;-82
2022/10/14 01:15:30;;;;;;;20.43;19.03;;;14.20;94.30;;;;;;4956978;28;20514;-82
2022/10/14 01:18:09;;;;;;;20.80;19.30;;;14.30;94.20;;;;;;4955978;28;20522;-82
2022/10/14 01:21:01;;;;;;;21.33;19.53;;;14.20;94.10;;;;;;4956155;29;20463;-82
2022/10/14 01:24:03;;;;;;;21.53;19.90;;;14.20;93.80;;;;;;4949182;28;20593;-82
2022/10/14 01:26:56;;;;;;;20.50;18.87;;;14.20;94.10;;;;;;4934010;28;20523;-82
2022/10/14 01:29:53;;;;;;;20.17;18.83;;;14.20;94.10;;;;;;4954701;29;20794;-82
2022/10/14 01:32:26;;;;;;;20.57;19.07;;;14.10;94.50;;;;;;4951085;29;20577;-82
2022/10/14 01:34:58;;;;;;;19.03;17.63;;;14.10;94.70;;;;;;4955463;28;20541;-82
2022/10/14 01:37:28;;;;;;;21.40;19.80;;;14.10;94.80;;;;;;4957264;28;20464;-82
2022/10/14 01:39:59;;;;;;;20.30;18.77;;;14.20;94.70;;;;;;4961249;29;20563;-82
2022/10/14 01:42:30;;;;;;;18.53;17.33;;;14.20;94.10;;;;;;4959062;29;20459;-83
2022/10/14 01:45:03;;;;;;;20.80;19.40;;;14.20;94.10;;;;;;4962988;29;20531;-82
2022/10/14 01:47:33;;;;;;;19.67;18.30;;;14.20;94.00;;;;;;4962667;28;20467;-82
2022/10/14 01:50:04;;;;;;;21.20;19.20;;;14.20;94.00;;;;;;4961220;29;20975;-81
2022/10/14 01:52:36;;;;;;;19.77;18.50;;;14.30;93.90;;;;;;4962973;28;20456;-82
2022/10/14 01:55:08;;;;;;;20.03;18.63;;;14.30;93.70;;;;;;4963620;29;20479;-83
2022/10/14 01:57:39;;;;;;;19.40;18.00;;;14.30;93.80;;;;;;4962120;29;20654;-83
2022/10/14 02:00:10;;;;;;;19.30;17.77;;;14.20;94.00;;;;;;4962128;28;20555;-82
2022/10/14 02:02:38;;;;;;;18.80;17.50;;;14.30;94.00;;;;;;4953867;28;20472;-82
2022/10/14 02:05:11;;;;;;;20.83;19.07;;;14.30;94.20;;;;;;4950642;29;20491;-82
2022/10/14 02:07:42;;;;;;;19.93;18.63;;;14.20;94.40;;;;;;4952264;29;20472;-82
2022/10/14 02:10:19;;;;;;;24.37;22.30;;;14.20;95.00;;;;;;4948549;29;20857;-82
2022/10/14 02:13:00;;;;;;;22.50;21.10;;;14.20;95.00;;;;;;4951408;28;20475;-82
2022/10/14 02:15:33;;;;;;;21.13;19.30;;;14.20;95.30;;;;;;4949117;29;20475;-82
2022/10/14 02:18:05;;;;;;;20.50;19.13;;;14.20;95.20;;;;;;4951244;28;20487;-82
2022/10/14 02:20:36;;;;;;;20.80;19.10;;;14.20;95.70;;;;;;4950954;29;20451;-82
2022/10/14 02:23:11;;;;;;;21.47;19.83;;;14.20;95.70;;;;;;4950170;28;20486;-82
2022/10/14 02:25:41;;;;;;;20.43;19.30;;;14.30;95.50;;;;;;4953517;28;20490;-82
2022/10/14 02:28:10;;;;;;;21.47;19.63;;;14.30;95.40;;;;;;4950874;29;20531;-82
2022/10/14 02:30:43;;;;;;;19.10;17.70;;;14.30;95.20;;;;;;4952503;29;20478;-82
2022/10/14 02:33:10;;;;;;;21.10;19.50;;;14.30;95.20;;;;;;4950525;28;20473;-82
2022/10/14 02:35:38;;;;;;;22.37;20.87;;;14.30;95.10;;;;;;4951538;28;20490;-82
2022/10/14 02:38:07;;;;;;;21.30;19.47;;;14.30;94.90;;;;;;4950929;28;20516;-82
2022/10/14 02:40:38;;;;;;;28.37;26.63;;;14.30;94.70;;;;;;4954907;28;20531;-82
2022/10/14 02:43:06;;;;;;;21.37;19.87;;;14.30;94.70;;;;;;4949462;28;20463;-82
2022/10/14 02:45:34;;;;;;;22.40;20.90;;;14.30;94.70;;;;;;4947506;29;20483;-82
2022/10/14 02:48:03;;;;;;;22.80;21.10;;;14.20;94.90;;;;;;4949630;28;20496;-82
2022/10/14 02:50:29;;;;;;;25.30;23.47;;;14.30;95.10;;;;;;4956158;28;20534;-81
2022/10/14 02:52:56;;;;;;;22.23;20.83;;;14.30;94.90;;;;;;4967327;29;20471;-81
2022/10/14 02:55:24;;;;;;;22.60;21.10;;;14.20;95.10;;;;;;4975587;28;20492;-82
2022/10/14 02:57:51;;;;;;;23.60;21.17;;;14.30;95.10;;;;;;4971458;28;20487;-82
2022/10/14 03:00:19;;;;;;;25.47;23.60;;;14.30;95.00;;;;;;4961446;28;20534;-82
2022/10/14 03:02:46;;;;;;;21.77;20.30;;;14.30;94.90;;;;;;4954682;29;20873;-82
2022/10/14 03:05:15;;;;;;;23.17;21.60;;;14.30;94.90;;;;;;4953300;28;20484;-82
2022/10/14 03:07:41;;;;;;;35.00;33.07;;;14.30;95.00;;;;;;4956861;28;20522;-82
2022/10/14 03:10:09;;;;;;;22.03;20.20;;;14.30;95.40;;;;;;4955588;29;20918;-82
2022/10/14 03:12:36;;;;;;;26.33;24.73;;;14.30;95.30;;;;;;4967251;29;20499;-82
2022/10/14 03:15:03;;;;;;;22.47;21.23;;;14.30;95.20;;;;;;4966967;28;20518;-82
2022/10/14 03:17:30;;;;;;;22.10;20.60;;;14.30;95.20;;;;;;4959218;28;20487;-82
2022/10/14 03:19:58;;;;;;;25.17;23.30;;;14.40;95.10;;;;;;4957650;29;20570;-82
2022/10/14 03:22:26;;;;;;;22.20;20.07;;;14.30;95.10;;;;;;4958355;28;20459;-82
2022/10/14 03:24:53;;;;;;;31.90;30.03;;;14.30;95.30;;;;;;4959091;29;20483;-82
2022/10/14 03:27:20;;;;;;;21.20;19.67;;;14.30;95.30;;;;;;4957547;29;20487;-82
2022/10/14 03:29:47;;;;;;;22.40;20.80;;;14.30;95.40;;;;;;4953405;28;20577;-82
2022/10/14 03:32:14;;;;;;;23.73;22.23;;;14.30;95.40;;;;;;4955881;28;20471;-82
2022/10/14 03:34:41;;;;;;;20.37;18.90;;;14.30;95.30;;;;;;4951799;28;20499;-82
2022/10/14 03:37:08;;;;;;;23.67;21.50;;;14.20;95.70;;;;;;4955955;29;20455;-82
2022/10/14 03:39:36;;;;;;;27.87;25.83;;;14.20;95.80;;;;;;4952679;28;21044;-82
2022/10/14 03:42:03;;;;;;;31.20;29.10;;;14.20;95.70;;;;;;4956739;28;20623;-82
2022/10/14 03:44:30;;;;;;;34.20;32.13;;;14.20;95.60;;;;;;4955587;28;20558;-82
2022/10/14 03:46:57;;;;;;;25.47;23.63;;;14.10;95.90;;;;;;4957179;28;20489;-82
2022/10/14 03:49:24;;;;;;;34.27;32.10;;;14.10;96.00;;;;;;4955467;28;20466;-82
2022/10/14 03:51:51;;;;;;;22.33;20.63;;;14.20;95.70;;;;;;4955841;29;20541;-82
2022/10/14 03:54:18;;;;;;;20.70;19.20;;;14.20;95.70;;;;;;4958221;29;20995;-82
2022/10/14 03:56:46;;;;;;;21.77;20.07;;;14.20;95.30;;;;;;4959491;28;20544;-82
2022/10/14 03:59:13;;;;;;;29.97;28.10;;;14.10;95.50;;;;;;4960680;28;21735;-82
2022/10/14 04:01:40;;;;;;;23.80;22.03;;;14.10;95.80;;;;;;4961172;28;20496;-82
2022/10/14 04:04:07;;;;;;;20.73;19.07;;;13.90;96.30;;;;;;4961977;28;20487;-82
2022/10/14 04:06:34;;;;;;;19.70;17.90;;;13.90;96.80;;;;;;4952037;29;20480;-82
2022/10/14 04:09:01;;;;;;;27.23;25.23;;;13.80;97.00;;;;;;4961676;28;20463;-82
2022/10/14 04:11:28;;;;;;;21.03;19.63;;;13.90;97.10;;;;;;4961077;29;21048;-79
2022/10/14 04:13:59;;;;;;;33.37;31.27;;;13.90;96.90;;;;;;4956277;28;20515;-80
2022/10/14 04:16:26;;;;;;;22.63;20.50;;;13.90;96.70;;;;;;4960169;29;20902;-82
2022/10/14 04:18:53;;;;;;;23.27;21.70;;;13.90;96.60;;;;;;4955645;28;20492;-82
2022/10/14 04:21:20;;;;;;;23.40;21.70;;;13.90;96.50;;;;;;4955562;29;20463;-82
2022/10/14 04:23:47;;;;;;;30.60;27.90;;;13.80;96.50;;;;;;4955513;29;20566;-82
2022/10/14 04:26:14;;;;;;;26.07;24.03;;;13.80;96.60;;;;;;4955286;28;20459;-82
2022/10/14 04:28:41;;;;;;;20.20;18.60;;;13.80;96.60;;;;;;4954545;28;20459;-82
2022/10/14 04:31:09;;;;;;;27.77;25.20;;;13.80;96.60;;;;;;4954724;28;20601;-82
2022/10/14 04:33:36;;;;;;;24.37;22.87;;;13.80;96.40;;;;;;4956625;28;20489;-83
2022/10/14 04:36:06;;;;;;;21.10;19.13;;;13.90;96.20;;;;;;4959640;28;20473;-82
2022/10/14 04:38:33;;;;;;;28.80;26.50;;;13.90;96.10;;;;;;4960339;29;20472;-82
2022/10/14 04:41:00;;;;;;;21.60;19.90;;;13.80;96.40;;;;;;4960222;29;20547;-83
2022/10/14 04:43:27;;;;;;;29.20;27.00;;;13.80;96.50;;;;;;4959105;29;20535;-82
2022/10/14 04:45:54;;;;;;;22.73;21.17;;;13.80;96.40;;;;;;4963130;28;20570;-82
2022/10/14 04:48:22;;;;;;;21.77;20.10;;;13.80;96.60;;;;;;4960691;28;21893;-83
2022/10/14 04:50:50;;;;;;;29.03;27.03;;;13.80;96.80;;;;;;4963214;29;20483;-83
2022/10/14 04:53:17;;;;;;;26.93;24.80;;;13.80;96.90;;;;;;4964516;28;20452;-82
2022/10/14 04:55:45;;;;;;;22.98;20.88;;;13.80;96.90;;;;;;4962807;28;20619;-82
2022/10/14 04:58:12;;;;;;;20.20;18.50;;;13.90;97.10;;;;;;4961518;29;20449;-78
2022/10/14 05:00:39;;;;;;;23.87;21.47;;;13.80;96.70;;;;;;4948941;29;20475;-77
2022/10/14 05:03:05;;;;;;;22.30;20.53;;;13.90;96.80;;;;;;4951946;29;20546;-79
2022/10/14 05:05:34;;;;;;;22.60;20.20;;;13.90;96.60;;;;;;4947107;29;20929;-79
2022/10/14 05:08:01;;;;;;;21.77;19.97;;;13.90;96.50;;;;;;4942505;28;21220;-80
2022/10/14 05:10:28;;;;;;;28.77;26.67;;;13.90;96.40;;;;;;4953396;28;20543;-81
2022/10/14 05:12:55;;;;;;;24.63;22.87;;;13.90;96.50;;;;;;4967889;28;20487;-78
2022/10/14 05:15:22;;;;;;;23.33;21.23;;;13.90;96.50;;;;;;4970509;29;20499;-79
2022/10/14 05:17:49;;;;;;;27.07;25.00;;;14.00;96.10;;;;;;4976319;28;20522;-84
2022/10/14 05:20:16;;;;;;;35.40;33.20;;;14.00;96.00;;;;;;4954210;28;20910;-78
2022/10/14 05:22:45;;;;;;;24.57;22.67;;;14.00;96.00;;;;;;4947808;28;20497;-79
2022/10/14 05:25:12;;;;;;;21.03;19.20;;;14.10;95.80;;;;;;4951401;28;20502;-82
2022/10/14 05:27:39;;;;;;;33.43;30.73;;;14.10;95.90;;;;;;4948239;28;20463;-78
2022/10/14 05:30:07;;;;;;;27.37;25.40;;;14.10;95.40;;;;;;4950039;29;20451;-78
2022/10/14 05:32:34;;;;;;;36.83;34.53;;;14.10;95.40;;;;;;4951333;28;20646;-78
2022/10/14 05:35:01;;;;;;;23.03;21.23;;;14.10;95.50;;;;;;4953647;29;20577;-83
2022/10/14 05:37:28;;;;;;;22.57;20.87;;;14.10;95.60;;;;;;4958657;29;20467;-80
2022/10/14 05:39:57;;;;;;;23.47;21.30;;;14.10;95.50;;;;;;4957261;28;20586;-77
2022/10/14 05:42:24;;;;;;;27.77;25.73;;;14.20;95.30;;;;;;4952831;29;21069;-76
2022/10/14 05:44:50;;;;;;;21.77;20.23;;;14.20;95.10;;;;;;4953169;28;20675;-78
2022/10/14 05:47:17;;;;;;;38.33;35.97;;;14.20;95.00;;;;;;4949651;28;20475;-80
2022/10/14 05:49:44;;;;;;;38.83;36.43;;;14.20;95.00;;;;;;4949938;28;20463;-79
2022/10/14 05:52:11;;;;;;;25.77;23.93;;;14.30;94.70;;;;;;4951025;28;20594;-77
2022/10/14 05:54:38;;;;;;;24.73;22.83;;;14.30;94.60;;;;;;4951320;29;20520;-80
2022/10/14 05:57:06;;;;;;;25.90;23.97;;;14.50;94.20;;;;;;4946099;28;20210;-80
2022/10/14 05:59:34;;;;;;;24.87;23.20;;;14.40;93.90;;;;;;4951033;29;20539;-85
2022/10/14 06:02:01;;;;;;;23.40;21.47;;;14.40;93.90;;;;;;4951384;28;20482;-79
2022/10/14 06:04:28;;;;;;;29.97;27.97;;;14.40;94.00;;;;;;4948304;29;20483;-79
2022/10/14 06:06:55;;;;;;;28.30;26.25;;;14.50;94.00;;;;;;4944350;28;20477;-78
2022/10/14 06:09:22;;;;;;;35.43;33.00;;;14.50;93.80;;;;;;4943994;28;20298;-78
2022/10/14 06:11:49;;;;;;;34.80;32.20;;;14.50;93.60;;;;;;4939054;28;20555;-77
2022/10/14 06:14:20;;;;;;;31.50;29.10;;;14.50;93.60;;;;;;4947984;29;21242;-78
2022/10/14 06:16:50;;;;;;;25.03;23.07;;;14.50;93.90;;;;;;4946664;28;20547;-78
2022/10/14 06:19:17;;;;;;;29.27;27.27;;;14.50;93.80;;;;;;4949148;28;21157;-78
2022/10/14 06:21:44;;;;;;;33.27;30.97;;;14.50;94.00;;;;;;4945952;28;20574;-78
2022/10/14 06:24:11;;;;;;;33.07;30.87;;;14.50;93.90;;;;;;4933918;29;21120;-78
2022/10/14 06:26:38;;;;;;;35.57;32.90;;;14.60;93.70;;;;;;4950147;29;20469;-78
2022/10/14 06:29:05;;;;;;;24.67;22.33;;;14.60;93.60;;;;;;4952948;28;20459;-77
2022/10/14 06:31:34;;;;;;;25.30;23.40;;;14.60;93.60;;;;;;4950600;29;20988;-74
2022/10/14 06:34:05;;;;;;;29.40;27.23;;;14.60;93.50;;;;;;4952735;28;20575;-72
2022/10/14 06:36:32;;;;;;;27.80;25.83;;;14.60;93.60;;;;;;4952602;28;20513;-74
2022/10/14 06:38:59;;;;;;;22.10;20.20;;;14.70;93.40;;;;;;4951774;29;20458;-74
2022/10/14 06:41:26;;;;;;;24.97;23.20;;;14.70;93.30;;;;;;4951459;28;20479;-73
2022/10/14 06:43:53;;;;;;;32.47;30.37;;;14.80;93.20;;;;;;4953091;28;20479;-74
2022/10/14 06:46:23;;;;;;;25.43;23.70;;;14.80;93.10;;;;;;4952728;28;20481;-73
2022/10/14 06:48:51;;;;;;;27.13;25.23;;;14.80;93.00;;;;;;4952103;28;20494;-74
2022/10/14 06:51:18;;;;;;;24.90;23.10;;;14.80;93.00;;;;;;4952223;29;20463;-73
2022/10/14 06:53:45;;;;;;;25.43;23.20;;;14.90;93.10;;;;;;4951432;28;20587;-73
2022/10/14 06:56:12;;;;;;;27.40;25.20;;;14.90;92.70;;;;;;4950041;28;20483;-73
2022/10/14 06:58:39;;;;;;;33.53;31.27;;;15.20;92.20;;;;;;4949035;28;20536;-74
2022/10/14 07:01:08;;;;;;;32.47;30.07;;;15.30;91.50;;;;;;4951795;28;20483;-73
2022/10/14 07:03:37;;;;;;;37.77;35.27;;;15.30;91.50;;;;;;4947986;28;20826;-78
2022/10/14 07:06:08;;;;;;;38.87;36.47;;;15.20;91.60;;;;;;4952908;29;20490;-82
2022/10/14 07:08:35;;;;;;;31.40;29.20;;;15.40;91.10;;;;;;4944926;28;20498;-83
2022/10/14 07:11:03;;;;;;;28.33;26.33;;;15.40;90.80;;;;;;4953895;28;20526;-79
2022/10/14 07:13:34;;;;;;;26.27;24.13;;;15.40;90.80;;;;;;4948596;28;20464;-82
2022/10/14 07:16:01;;;;;;;34.40;32.23;;;15.40;90.60;;;;;;4950857;29;20460;-83
2022/10/14 07:18:28;;;;;;;35.67;33.13;;;15.40;90.40;;;;;;4945523;29;20464;-82
2022/10/14 07:20:56;;;;;;;36.00;33.80;;;15.40;90.30;;;;;;4954910;28;20487;-81
2022/10/14 07:23:25;;;;;;;42.27;39.87;;;15.50;89.50;;;;;;4946276;28;20472;-80
2022/10/14 07:25:55;;;;;;;28.03;26.33;;;15.50;89.00;;;;;;4950914;28;20468;-80
2022/10/14 07:28:22;;;;;;;26.50;24.10;;;15.50;89.10;;;;;;4942280;28;20468;-80
2022/10/14 07:30:57;;;;;;;27.40;25.50;;;15.50;89.30;;;;;;4951609;28;20463;-81
2022/10/14 07:33:24;;;;;;;43.80;41.40;;;15.70;89.30;;;;;;4950903;29;20856;-80
2022/10/14 07:35:51;;;;;;;38.47;36.37;;;15.80;89.20;;;;;;4954460;28;20467;-80
2022/10/14 07:38:18;;;;;;;26.73;24.43;;;15.80;89.20;;;;;;4945307;28;20557;-81
2022/10/14 07:40:56;;;;;;;30.50;28.33;;;15.90;89.00;;;;;;4948186;28;21001;-80
2022/10/14 07:43:23;;;;;;;29.97;28.00;;;16.10;88.80;;;;;;4951512;28;20467;-80
2022/10/14 07:45:51;;;;;;;45.50;43.00;;;16.20;88.20;;;;;;4951660;29;20468;-81
2022/10/14 07:48:18;;;;;;;41.13;38.67;;;16.40;87.10;;;;;;4947771;28;20794;-80
2022/10/14 07:50:52;;;;;;;40.87;38.00;;;16.40;87.00;;;;;;4949923;29;20465;-80
2022/10/14 07:53:19;;;;;;;26.20;24.30;;;16.50;87.00;;;;;;4954602;28;20535;-80
2022/10/14 07:55:51;;;;;;;26.23;24.43;;;16.50;86.80;;;;;;4967007;28;20470;-80
2022/10/14 07:58:19;;;;;;;32.60;30.50;;;16.60;86.30;;;;;;4969280;28;20460;-80
2022/10/14 08:00:46;;;;;;;49.70;47.00;;;16.70;85.90;;;;;;4973296;28;20526;-80
2022/10/14 08:03:13;;;;;;;50.30;47.80;;;16.70;85.50;;;;;;4974764;28;20511;-81
2022/10/14 08:05:41;;;;;;;28.60;27.00;;;16.80;85.30;;;;;;4972750;28;20507;-82
2022/10/14 08:08:08;;;;;;;26.90;25.30;;;16.90;84.90;;;;;;4955637;28;20468;-77
2022/10/14 08:10:36;;;;;;;30.57;28.63;;;17.00;84.20;;;;;;4950905;28;20463;-79
2022/10/14 08:13:05;;;;;;;35.57;33.80;;;17.10;83.60;;;;;;4949758;28;20903;-80
2022/10/14 08:15:37;;;;;;;27.37;25.53;;;17.10;83.10;;;;;;4951473;29;20487;-80
2022/10/14 08:18:04;;;;;;;38.67;36.23;;;17.20;82.60;;;;;;4952358;28;20909;-80
2022/10/14 08:20:32;;;;;;;28.23;26.63;;;17.20;82.20;;;;;;4952074;29;20507;-80
2022/10/14 08:22:59;;;;;;;39.47;37.07;;;17.20;82.40;;;;;;4952611;28;20455;-80
2022/10/14 08:25:26;;;;;;;27.97;26.27;;;17.20;82.60;;;;;;4951928;28;20547;-80
2022/10/14 08:27:56;;;;;;;26.00;24.53;;;17.30;82.40;;;;;;4951073;28;20578;-80
2022/10/14 08:30:24;;;;;;;39.10;36.83;;;17.30;82.00;;;;;;4946577;28;20464;-80
2022/10/14 08:32:51;;;;;;;30.27;28.63;;;17.50;81.70;;;;;;4952569;28;20460;-79
2022/10/14 08:35:18;;;;;;;28.93;27.43;;;17.50;81.50;;;;;;4953608;28;20996;-79
2022/10/14 08:37:54;;;;;;;28.93;26.70;;;17.60;81.50;;;;;;4954597;28;20904;-79
2022/10/14 08:40:21;;;;;;;29.80;28.20;;;17.70;80.50;;;;;;4952572;28;20818;-79
2022/10/14 08:42:54;;;;;;;28.50;26.80;;;17.80;80.70;;;;;;4953385;28;20465;-79
2022/10/14 08:45:31;;;;;;;39.30;37.37;;;17.90;80.30;;;;;;4949512;28;20558;-79
2022/10/14 08:48:00;;;;;;;49.37;46.67;;;18.00;80.10;;;;;;4950918;28;20553;-79
2022/10/14 08:50:33;;;;;;;46.03;42.47;;;18.00;79.90;;;;;;4952765;29;20462;-79
2022/10/14 08:53:06;;;;;;;39.63;37.40;;;18.20;78.90;;;;;;4942203;29;20483;-79
2022/10/14 08:55:36;;;;;;;34.97;33.07;;;18.30;78.60;;;;;;4949022;29;20566;-78
2022/10/14 08:58:08;;;;;;;30.60;29.00;;;18.40;78.70;;;;;;4951594;28;20499;-81
2022/10/14 09:00:37;;;;;;;48.53;45.93;;;18.50;77.50;;;;;;4958295;28;20566;-81
2022/10/14 09:03:15;;;;;;;30.37;28.37;;;18.60;77.00;;;;;;4958917;28;20543;-81
2022/10/14 09:05:43;;;;;;;30.03;28.03;;;18.70;76.90;;;;;;4955038;28;20470;-82
2022/10/14 09:08:15;;;;;;;31.80;30.10;;;18.70;76.60;;;;;;4954607;28;20499;-82
2022/10/14 09:10:44;;;;;;;41.10;39.00;;;18.60;76.80;;;;;;4958100;28;20498;-81
2022/10/14 09:13:17;;;;;;;40.70;38.10;;;18.60;77.10;;;;;;4959376;28;20973;-82
2022/10/14 09:15:48;;;;;;;30.47;28.80;;;18.70;76.70;;;;;;4955405;28;20510;-82
2022/10/14 09:18:26;;;;;;;40.57;38.10;;;18.80;76.20;;;;;;4961628;28;20816;-81
2022/10/14 09:20:56;;;;;;;37.33;35.40;;;18.90;76.20;;;;;;4963659;28;20630;-81
2022/10/14 09:23:24;;;;;;;35.70;33.50;;;19.00;75.60;;;;;;4957232;29;20553;-82
2022/10/14 09:25:56;;;;;;;30.97;29.17;;;18.90;75.50;;;;;;4943564;29;20448;-81
2022/10/14 09:28:29;;;;;;;34.57;32.37;;;18.90;75.60;;;;;;4957346;28;20518;-81
2022/10/14 09:30:57;;;;;;;35.47;33.57;;;19.00;75.00;;;;;;4948023;28;20814;-81
2022/10/14 09:33:28;;;;;;;39.00;36.70;;;18.90;75.00;;;;;;4956518;29;20474;-81
2022/10/14 09:35:56;;;;;;;31.37;29.73;;;19.00;74.80;;;;;;4960825;28;20447;-82
2022/10/14 09:38:25;;;;;;;32.60;30.60;;;19.10;74.50;;;;;;4960076;28;20464;-81
2022/10/14 09:40:56;;;;;;;39.57;37.67;;;19.10;74.50;;;;;;4958795;28;20602;-82
2022/10/14 09:43:24;;;;;;;41.27;38.93;;;19.30;74.50;;;;;;4956812;28;20499;-80
2022/10/14 09:45:55;;;;;;;46.40;43.90;;;19.50;73.50;;;;;;4959002;28;20472;-79
2022/10/14 09:48:36;;;;;;;39.03;37.13;;;19.60;73.00;;;;;;4959153;28;20479;-80
2022/10/14 09:51:06;;;;;;;34.37;32.43;;;19.60;72.90;;;;;;4947545;28;20464;-79
2022/10/14 09:53:40;;;;;;;36.20;34.30;;;19.60;73.70;;;;;;4947661;28;20566;-79
2022/10/14 09:56:09;;;;;;;40.27;38.30;;;19.70;72.70;;;;;;4946956;28;20518;-78
2022/10/14 09:58:39;;;;;;;42.03;39.83;;;19.90;72.60;;;;;;4944792;28;20459;-79
2022/10/14 10:01:11;;;;;;;35.30;33.60;;;19.90;72.40;;;;;;4958958;29;20531;-78
2022/10/14 10:03:40;;;;;;;35.30;33.20;;;20.00;72.60;;;;;;4958971;28;20491;-80
2022/10/14 10:06:10;;;;;;;35.57;33.47;;;20.20;72.30;;;;;;4960827;29;20463;-78
2022/10/14 10:08:40;;;;;;;31.70;30.10;;;20.40;71.90;;;;;;4950984;29;21288;-78
2022/10/14 10:11:09;;;;;;;35.70;33.83;;;20.60;71.30;;;;;;4955336;29;20459;-79
2022/10/14 10:13:40;;;;;;;39.50;37.33;;;20.80;70.60;;;;;;4960613;28;20606;-79
2022/10/14 10:16:17;;;;;;;43.47;41.07;;;20.80;70.40;;;;;;4960636;29;20464;-79
2022/10/14 10:18:46;;;;;;;33.00;31.30;;;20.90;70.50;;;;;;4956155;28;20467;-77
2022/10/14 10:21:18;;;;;;;45.43;43.17;;;21.10;70.30;;;;;;4959301;29;20555;-78
2022/10/14 10:23:54;;;;;;;33.17;31.60;;;21.10;70.10;;;;;;4951818;28;20480;-78
2022/10/14 10:26:25;;;;;;;43.53;41.17;;;21.10;69.70;;;;;;4953252;29;20463;-79
2022/10/14 10:28:55;;;;;;;36.47;34.47;;;21.10;70.00;;;;;;4947926;28;20474;-80
2022/10/14 10:32:00;;;;;;;37.40;35.23;;;21.10;69.60;;;;;;4948363;28;20468;-78
2022/10/14 10:34:59;;;;;;;34.47;32.67;;;21.20;69.60;;;;;;4948589;28;20491;-79
2022/10/14 10:37:28;;;;;;;36.40;34.40;;;21.20;70.00;;;;;;4952328;28;20534;-81
2022/10/14 10:40:27;;;;;;;33.20;31.37;;;21.30;69.30;;;;;;4948930;28;20468;-83
2022/10/14 10:43:21;;;;;;;32.30;30.57;;;21.10;69.00;;;;;;4949801;28;20570;-82
2022/10/14 10:46:03;;;;;;;45.70;43.50;;;21.00;69.80;;;;;;4946653;28;20460;-79
2022/10/14 10:48:39;;;;;;;37.90;35.33;;;21.00;69.50;;;;;;4947717;28;20550;-79
2022/10/14 10:51:12;;;;;;;37.07;34.73;;;21.00;69.70;;;;;;4949792;28;20460;-80
2022/10/14 10:53:55;;;;;;;34.27;32.67;;;21.00;69.10;;;;;;4942804;29;20573;-81
2022/10/14 10:56:33;;;;;;;37.47;35.67;;;21.00;69.90;;;;;;4939892;28;20550;-79
2022/10/14 10:59:25;;;;;;;32.83;31.00;;;20.90;69.80;;;;;;4947530;28;20517;-79
2022/10/14 11:02:10;;;;;;;35.60;33.90;;;20.90;70.00;;;;;;4928838;28;20484;-79
2022/10/14 11:04:45;;;;;;;31.70;29.90;;;20.90;69.50;;;;;;4944779;28;20688;-80
2022/10/14 11:13:07;;;;;;;32.50;30.70;;;20.40;70.60;;;;;;4958248;28;20450;-83
2022/10/14 11:15:44;;;;;;;46.00;43.60;;;20.30;71.00;;;;;;4960218;28;20483;-81
2022/10/14 11:18:19;;;;;;;39.63;37.03;;;20.10;71.70;;;;;;4956645;28;21284;-82
2022/10/14 11:20:59;;;;;;;35.57;33.47;;;19.90;74.20;;;;;;4955038;29;20459;-82
2022/10/14 11:23:43;;;;;;;38.47;36.50;;;19.70;75.40;;;;;;4955268;28;20548;-80
2022/10/14 11:26:20;;;;;;;35.17;33.47;;;19.70;76.70;;;;;;4955746;28;20479;-86
2022/10/14 11:28:55;;;;;;;31.90;30.10;;;19.60;77.10;;;;;;4954839;29;20513;-87
2022/10/14 11:31:32;;;;;;;37.30;35.40;;;19.60;77.60;;;;;;4955663;28;20534;-84
2022/10/14 11:34:14;;;;;;;28.97;27.57;;;19.60;77.70;;;;;;4949314;28;20487;-76
2022/10/14 11:36:50;;;;;;;36.40;34.43;;;19.80;77.70;;;;;;4953634;28;20478;-81
2022/10/14 11:39:30;;;;;;;31.10;29.40;;;19.80;77.50;;;;;;4947646;29;20465;-78
2022/10/14 11:42:10;;;;;;;38.20;36.10;;;19.60;77.80;;;;;;4945106;28;20484;-79
2022/10/14 11:44:40;;;;;;;31.20;29.70;;;19.70;78.30;;;;;;4952852;28;20490;-81
2022/10/14 11:47:14;;;;;;;44.17;41.83;;;19.80;77.70;;;;;;4946466;28;20943;-82
2022/10/14 11:49:48;;;;;;;38.07;36.27;;;19.90;77.30;;;;;;4947654;29;20949;-83
2022/10/14 11:52:22;;;;;;;38.43;36.30;;;20.10;76.40;;;;;;4949526;28;20463;-84
2022/10/14 11:54:57;;;;;;;41.80;39.50;;;20.20;76.20;;;;;;4943643;29;20490;-83
2022/10/14 11:57:31;;;;;;;40.80;38.50;;;20.40;75.60;;;;;;4940319;28;20886;-83
2022/10/14 12:02:52;;;;;;;39.80;37.57;;;20.60;74.70;;;;;;4954887;29;20486;-85
2022/10/14 12:05:25;;;;;;;33.77;31.63;;;20.70;74.30;;;;;;4955612;28;20570;-85
2022/10/14 12:08:05;;;;;;;34.73;32.83;;;20.90;74.30;;;;;;4947761;28;20551;-84
2022/10/14 12:10:37;;;;;;;36.43;34.53;;;20.90;73.90;;;;;;4956839;29;20487;-85
2022/10/14 12:13:08;;;;;;;29.33;27.73;;;21.10;73.50;;;;;;4937269;29;20535;-83
2022/10/14 12:15:37;;;;;;;38.03;35.83;;;21.20;72.90;;;;;;4945898;29;20471;-85
2022/10/14 12:18:07;;;;;;;33.33;31.60;;;21.20;72.30;;;;;;4954599;28;21044;-84
2022/10/14 12:20:43;;;;;;;45.03;43.00;;;21.20;72.60;;;;;;4949475;29;20459;-82
2022/10/14 12:23:14;;;;;;;36.57;34.50;;;21.30;72.70;;;;;;4954365;28;20491;-82
2022/10/14 12:25:51;;;;;;;39.33;37.43;;;21.40;72.10;;;;;;4949568;29;20471;-80
2022/10/14 12:28:24;;;;;;;43.77;41.67;;;21.50;71.30;;;;;;4954849;28;20538;-82
2022/10/14 12:30:51;;;;;;;47.40;44.70;;;21.50;71.40;;;;;;4953811;28;20486;-83
2022/10/14 12:33:21;;;;;;;40.40;38.50;;;21.70;71.30;;;;;;4942899;28;20464;-81
2022/10/14 12:35:59;;;;;;;37.63;35.63;;;21.80;70.60;;;;;;4946892;29;20467;-78
2022/10/14 12:38:28;;;;;;;34.57;32.93;;;21.80;70.20;;;;;;4957870;28;20460;-88
2022/10/14 12:41:33;;;;;;;42.80;40.80;;;21.70;70.50;;;;;;4945719;28;20468;-79
2022/10/14 12:44:02;;;;;;;36.73;34.97;;;21.70;69.80;;;;;;4948490;28;20475;-82
2022/10/14 12:46:30;;;;;;;50.33;47.70;;;21.80;70.10;;;;;;4946558;29;20523;-82
2022/10/14 12:48:58;;;;;;;42.60;40.60;;;21.70;69.90;;;;;;4950310;29;20460;-82
2022/10/14 12:51:26;;;;;;;33.83;32.30;;;21.60;70.10;;;;;;4951683;28;20480;-81
2022/10/14 12:54:10;;;;;;;38.27;36.50;;;21.50;70.40;;;;;;4955354;29;20479;-83